Observations for SAINT-BRIEUC ARMOR, France (LFRT)

LFRT 222200Z AUTO 23006KT 190V250 CAVOK 08/07 Q1023 
LFRT 222130Z AUTO 23005KT 190V260 9999 BKN022 08/07 Q1023   
LFRT 222100Z AUTO 22004KT 200V270 9999 BKN026 07/06 Q1023   
LFRT 222030Z AUTO 24007KT 9999 FEW026 08/06 Q1023   
LFRT 222000Z AUTO 23006KT 200V270 9999 BKN025 08/06 Q1023   
LFRT 221930Z AUTO 23005KT 190V260 9999 BKN026 09/06 Q1023   
LFRT 221900Z AUTO 21003KT 180V260 9999 BKN028 09/06 Q1022   
LFRT 221830Z AUTO 27006KT 9999 OVC026 09/06 Q1022   
LFRT 221800Z AUTO 29009G19KT 250V320 9999 OVC025 10/06 Q1022
LFRT 221730Z AUTO 28009KT 9999 OVC027 10/06 Q1022   
LFRT 221700Z AUTO 28011KT 9999 OVC029 10/06 Q1021   
LFRT 221630Z AUTO 30009KT 9999 BKN032 09/06 Q1021   
LFRT 221600Z AUTO 30013KT 9999 FEW032 10/06 Q1021   
LFRT 221530Z AUTO 29015KT 9999 BKN032 11/05 Q1021   
LFRT 221500Z AUTO 30013KT 9999 FEW028 11/06 Q1020   
LFRT 221430Z AUTO 29016KT 9999 BKN022 BKN031 11/06 Q1020
LFRT 221400Z AUTO 30012KT 9999 SCT021 BKN028 11/08 Q1019
LFRT 221330Z AUTO 30012KT 260V320 9999 BKN024 OVC031 11/07 Q1019
LFRT 221300Z AUTO 31014KT 9999 FEW021 OVC030 11/08 Q1019
LFRT 221230Z AUTO 31016KT 9999 BKN019 BKN026 BKN031 11/08 Q1019 
LFRT 221200Z AUTO 31016KT 9999 OVC018 11/08 Q1018   
LFRT 221130Z AUTO 31017G27KT 9999 BKN015 OVC043 11/08 Q1018 
LFRT 221100Z AUTO 32016KT 9999 BKN016 OVC042 10/08 Q1017
LFRT 221030Z AUTO 32017KT 9999 BKN013 OVC026 10/08 Q1017